L’AEROCLUB LOUDUNAIS ET L’ANEG PARTENAIRES DU TELETHON 2020

OFFREZ VOUS OU OFFREZ A VOS PROCHES

UN VOL DE DECOUVERTE EN

CHARIOT ASCENSIONNEL, EN AVION OU EN ULM

Un cadeau de Noël extraordinaire doublé d’une action envers le Téléthon

Information en heures locale pour LFDL
24 February 2024

Metar
LFBI 240800Z AUTO 20011KT 9999 OVC005 04/03 Q1003 TEMPO 4000 BR

Lever du soleil : 07:50

Coucher du soleil : 18:35

Actualité

Appel aux dons

Notre Aéroclub Loudunais a vécu cet été une terrible tragédie qui nous profondément endeuillés et provoqué la perte définitive d’un …

L’aéro club Loudunais organise le dimanche 1/10 un café croissant. Et pour continuer ce moment de convivialité, il sera possible …

C’est avec une infinie tristesse que nous avons appris le décès de notre pilote Gérard Leclerc, de Michèle Monory et …

C’est ce lundi 19 juin que l’Ecole de Parachutisme Ascensionnel de l’Aéroclub Loudunais (EPAAL), a reçu des pensionnaires de l’ADAPEI …

Newsletter Sign Up

Praesent libero sed cursus anted dapibus diam